createdAt,value
2022-08-20T00:02:11.605Z,25.35
2022-08-20T00:04:39.465Z,23.15
2022-08-20T00:07:07.001Z,24.85
2022-08-20T00:09:33.728Z,25.73
2022-08-20T00:12:05.411Z,25.10
2022-08-20T00:14:33.941Z,24.52
2022-08-20T00:17:01.703Z,25.70
2022-08-20T00:19:30.919Z,26.02
2022-08-20T00:21:58.226Z,23.13
2022-08-20T00:24:25.672Z,22.73
2022-08-20T00:26:52.983Z,22.45
2022-08-20T00:29:20.459Z,25.75
2022-08-20T00:31:49.835Z,26.00
2022-08-20T00:34:16.605Z,26.63
2022-08-20T00:36:43.491Z,24.65
2022-08-20T00:39:10.301Z,27.02
2022-08-20T00:41:37.130Z,32.53
2022-08-20T00:44:08.637Z,30.38
2022-08-20T00:46:36.219Z,33.97
2022-08-20T00:49:05.148Z,32.17
2022-08-20T00:51:41.132Z,32.15
2022-08-20T00:54:36.225Z,29.40
2022-08-20T00:57:59.053Z,30.83
2022-08-20T01:00:42.387Z,29.83
2022-08-20T01:03:11.431Z,31.38
2022-08-20T01:05:40.033Z,30.83
2022-08-20T01:08:07.596Z,31.67
2022-08-20T01:10:37.388Z,32.13
2022-08-20T01:13:08.075Z,32.45
2022-08-20T01:15:38.059Z,29.52
2022-08-20T01:18:11.932Z,32.17
2022-08-20T01:20:42.733Z,30.90
2022-08-20T01:23:15.258Z,30.63
2022-08-20T01:25:57.358Z,31.05
2022-08-20T01:28:33.960Z,30.60
2022-08-20T01:31:00.698Z,31.23
2022-08-20T01:33:27.538Z,30.70
2022-08-20T01:35:54.620Z,29.63
2022-08-20T01:38:21.618Z,29.42
2022-08-20T01:41:03.943Z,29.55
2022-08-20T01:43:31.154Z,28.33
2022-08-20T01:46:04.156Z,29.88
2022-08-20T01:48:31.792Z,30.00
2022-08-20T01:51:06.045Z,28.58
2022-08-20T01:53:37.036Z,28.83
2022-08-20T01:56:07.528Z,27.77
2022-08-20T01:58:35.967Z,27.48
2022-08-20T02:01:02.904Z,26.08
2022-08-20T02:03:32.507Z,23.98
2022-08-20T02:06:02.077Z,21.67
2022-08-20T02:08:28.855Z,22.65
2022-08-20T02:10:55.556Z,22.15
2022-08-20T02:13:22.365Z,21.25
2022-08-20T02:15:49.036Z,21.30
2022-08-20T02:18:16.094Z,19.00
2022-08-20T02:20:44.538Z,18.02
2022-08-20T02:23:12.205Z,16.58
2022-08-20T02:25:41.860Z,14.95
2022-08-20T02:28:11.592Z,14.52
2022-08-20T02:30:43.211Z,15.00
2022-08-20T02:33:12.780Z,14.05
2022-08-20T02:35:40.854Z,14.23
2022-08-20T02:38:07.683Z,13.00
2022-08-20T02:40:34.608Z,13.80
2022-08-20T02:43:02.059Z,13.95
2022-08-20T02:45:31.712Z,14.93
2022-08-20T02:47:58.523Z,15.93
2022-08-20T02:50:26.930Z,16.70
2022-08-20T02:52:54.231Z,17.10
2022-08-20T02:55:27.951Z,19.08
2022-08-20T02:58:01.363Z,21.33
2022-08-20T03:00:30.154Z,20.52
2022-08-20T03:03:03.451Z,23.52
2022-08-20T03:05:30.130Z,20.58
2022-08-20T03:07:57.230Z,23.38
2022-08-20T03:10:30.795Z,24.73
2022-08-20T03:12:57.772Z,27.50
2022-08-20T03:15:24.525Z,30.77
2022-08-20T03:17:51.334Z,26.40
2022-08-20T03:20:18.306Z,26.08
2022-08-20T03:22:50.941Z,27.58
2022-08-20T03:25:18.180Z,29.95
2022-08-20T03:27:45.511Z,25.30
2022-08-20T03:30:14.372Z,26.85
2022-08-20T03:32:41.709Z,27.60
2022-08-20T03:35:11.627Z,31.27
2022-08-20T03:37:39.470Z,30.33
2022-08-20T03:40:17.043Z,34.08
2022-08-20T03:42:43.809Z,32.47
2022-08-20T03:45:15.048Z,35.47
2022-08-20T03:47:43.854Z,38.85
2022-08-20T03:50:11.544Z,36.42
2022-08-20T03:52:49.961Z,38.33
2022-08-20T03:55:16.770Z,39.03
2022-08-20T03:57:50.622Z,39.10
2022-08-20T04:00:21.911Z,42.58
2022-08-20T04:02:48.699Z,38.45
2022-08-20T04:05:15.587Z,39.90
2022-08-20T04:07:42.745Z,40.58
2022-08-20T04:10:11.853Z,41.40
2022-08-20T04:12:39.025Z,40.08
2022-08-20T04:15:15.563Z,41.10
2022-08-20T04:17:46.561Z,39.22
2022-08-20T04:20:15.938Z,37.30
2022-08-20T04:22:42.633Z,36.47
2022-08-20T04:25:25.769Z,35.65
2022-08-20T04:27:53.671Z,35.65
2022-08-20T04:30:20.622Z,35.25
2022-08-20T04:32:47.291Z,34.40
2022-08-20T04:35:14.634Z,36.55
2022-08-20T04:37:42.177Z,36.75
2022-08-20T04:40:13.243Z,36.85
2022-08-20T04:42:40.048Z,38.20
2022-08-20T04:45:10.815Z,37.05
2022-08-20T04:47:37.620Z,36.72
2022-08-20T04:50:07.444Z,36.45
2022-08-20T04:52:37.232Z,35.90
2022-08-20T04:55:05.258Z,35.58
2022-08-20T04:57:33.755Z,36.22
2022-08-20T05:00:00.759Z,37.42
2022-08-20T05:02:27.440Z,39.50
2022-08-20T05:04:54.178Z,37.40
2022-08-20T05:07:21.885Z,41.38
2022-08-20T05:09:48.589Z,38.25
2022-08-20T05:12:15.264Z,37.90
2022-08-20T05:14:42.071Z,37.97
2022-08-20T05:17:09.186Z,42.03
2022-08-20T05:19:38.892Z,38.90
2022-08-20T05:22:05.726Z,38.00
2022-08-20T05:24:32.577Z,38.22
2022-08-20T05:27:02.361Z,38.10
2022-08-20T05:29:29.026Z,37.38
2022-08-20T05:31:55.774Z,36.80
2022-08-20T05:34:22.593Z,36.35
2022-08-20T05:36:51.063Z,34.70
2022-08-20T05:39:19.783Z,33.55
2022-08-20T05:41:47.027Z,35.90
2022-08-20T05:44:13.874Z,32.92
2022-08-20T05:46:42.509Z,35.75
2022-08-20T05:49:11.346Z,34.50
2022-08-20T05:51:38.147Z,34.47
2022-08-20T05:54:06.160Z,34.22
2022-08-20T05:56:33.388Z,35.00
2022-08-20T05:59:01.584Z,33.40
2022-08-20T06:01:28.880Z,33.10
2022-08-20T06:03:55.922Z,33.20
2022-08-20T06:06:44.625Z,33.10
2022-08-20T06:09:09.398Z,33.90
2022-08-20T06:11:37.341Z,33.40
2022-08-20T06:14:05.055Z,33.85
2022-08-20T06:16:31.820Z,34.95
2022-08-20T06:18:58.811Z,33.05
2022-08-20T06:21:26.187Z,33.28
2022-08-20T06:23:58.411Z,32.33
2022-08-20T06:26:30.296Z,32.67
2022-08-20T06:28:58.603Z,33.80
2022-08-20T06:31:25.575Z,33.47
2022-08-20T06:33:52.262Z,32.30
2022-08-20T06:36:19.687Z,33.10
2022-08-20T06:38:46.563Z,33.25
2022-08-20T06:41:13.797Z,32.97
2022-08-20T06:43:40.733Z,33.80
2022-08-20T06:46:07.599Z,31.98
2022-08-20T06:48:34.721Z,35.35
2022-08-20T06:51:01.389Z,34.53
2022-08-20T06:53:28.087Z,34.28
2022-08-20T06:55:56.707Z,33.42
2022-08-20T06:58:35.643Z,36.50
2022-08-20T07:01:10.958Z,32.67
2022-08-20T07:03:55.443Z,36.65
2022-08-20T07:06:23.813Z,34.92
2022-08-20T07:08:50.550Z,36.15
2022-08-20T07:11:17.255Z,35.03
2022-08-20T07:13:44.028Z,32.58
2022-08-20T07:16:10.760Z,35.15
2022-08-20T07:18:39.813Z,36.72
2022-08-20T07:21:06.595Z,36.70
2022-08-20T07:23:33.382Z,35.53
2022-08-20T07:26:00.080Z,34.63
2022-08-20T07:28:27.717Z,37.13
2022-08-20T07:30:56.886Z,36.22
2022-08-20T07:33:28.420Z,36.45
2022-08-20T07:35:56.737Z,36.75
2022-08-20T07:38:24.939Z,36.97
2022-08-20T07:40:54.653Z,38.67
2022-08-20T07:43:22.023Z,38.75
2022-08-20T07:45:49.820Z,40.05
2022-08-20T07:48:29.700Z,39.53
2022-08-20T07:51:00.727Z,40.55
2022-08-20T07:53:30.235Z,41.28
2022-08-20T07:56:01.403Z,38.20
2022-08-20T07:58:33.422Z,39.35
2022-08-20T08:01:00.688Z,40.40
2022-08-20T08:03:41.056Z,39.97
2022-08-20T08:06:14.576Z,41.85
2022-08-20T08:08:43.964Z,41.65
2022-08-20T08:11:12.133Z,41.13
2022-08-20T08:13:41.183Z,39.85
2022-08-20T08:16:09.593Z,41.65
2022-08-20T08:18:45.194Z,40.50
2022-08-20T08:23:40.281Z,42.50
2022-08-20T08:26:06.993Z,41.45
2022-08-20T08:28:43.295Z,41.75
2022-08-20T08:31:11.337Z,43.35
2022-08-20T08:33:38.199Z,43.92
2022-08-20T08:36:10.967Z,43.38
2022-08-20T08:38:39.927Z,43.35
2022-08-20T08:41:35.856Z,44.38
2022-08-20T08:44:15.724Z,42.47
2022-08-20T08:46:44.594Z,43.75
2022-08-20T08:49:17.532Z,44.50
2022-08-20T08:51:56.687Z,43.83
2022-08-20T08:54:28.419Z,43.25
2022-08-20T08:56:55.607Z,45.10
2022-08-20T08:59:23.393Z,43.60
2022-08-20T09:01:57.154Z,44.78
2022-08-20T09:04:38.914Z,42.03
2022-08-20T09:07:10.533Z,44.28
2022-08-20T09:09:40.527Z,43.50
2022-08-20T09:12:12.632Z,41.95
2022-08-20T09:14:40.168Z,41.22
2022-08-20T09:17:07.380Z,41.40
2022-08-20T09:19:34.079Z,41.42
2022-08-20T09:22:11.311Z,41.47
2022-08-20T09:24:38.777Z,41.97
2022-08-20T09:27:06.047Z,39.80
2022-08-20T09:29:33.053Z,40.28
2022-08-20T09:32:10.574Z,39.92
2022-08-20T09:34:39.294Z,41.22
2022-08-20T09:37:06.419Z,37.70
2022-08-20T09:39:33.352Z,40.78
2022-08-20T09:42:15.054Z,38.53
2022-08-20T09:44:41.828Z,40.30
2022-08-20T09:47:08.975Z,39.28
2022-08-20T09:49:36.104Z,39.75
2022-08-20T09:52:05.656Z,40.28
2022-08-20T09:54:33.061Z,40.58
2022-08-20T09:57:06.761Z,42.15
2022-08-20T09:59:35.508Z,40.13
2022-08-20T10:02:02.401Z,42.75
2022-08-20T10:04:29.291Z,42.50
2022-08-20T10:06:56.663Z,42.85
2022-08-20T10:09:23.599Z,41.92
2022-08-20T10:11:50.293Z,41.08
2022-08-20T10:14:16.973Z,39.80
2022-08-20T10:16:43.673Z,40.58
2022-08-20T10:19:10.424Z,39.72
2022-08-20T10:21:40.288Z,39.08
2022-08-20T10:24:06.999Z,35.92
2022-08-20T10:26:33.832Z,36.03
2022-08-20T10:29:00.547Z,34.28
2022-08-20T10:31:27.301Z,33.10
2022-08-20T10:33:54.243Z,32.90
2022-08-20T10:36:20.966Z,31.50
2022-08-20T10:38:47.808Z,30.70
2022-08-20T10:41:14.907Z,28.63
2022-08-20T10:43:41.684Z,26.67
2022-08-20T10:46:08.592Z,26.15
2022-08-20T10:48:35.581Z,23.90
2022-08-20T10:51:02.826Z,23.23
2022-08-20T10:53:30.020Z,23.15
2022-08-20T10:55:57.649Z,19.30
2022-08-20T10:58:25.529Z,19.55
2022-08-20T11:00:53.139Z,18.98
2022-08-20T11:03:20.562Z,19.75
2022-08-20T11:05:48.007Z,18.35
2022-08-20T11:08:14.851Z,18.27
2022-08-20T11:13:27.557Z,19.38
2022-08-20T11:15:54.435Z,19.02
2022-08-20T11:18:21.324Z,18.20
2022-08-20T11:20:48.079Z,19.42
2022-08-20T11:23:14.866Z,17.75
2022-08-20T11:25:41.673Z,16.73
2022-08-20T11:28:08.370Z,15.55
2022-08-20T11:30:37.089Z,15.02
2022-08-20T11:33:04.679Z,13.65
2022-08-20T11:35:50.059Z,13.88
2022-08-20T11:38:18.035Z,14.27
2022-08-20T11:40:45.363Z,13.50
2022-08-20T11:43:15.079Z,10.90
2022-08-20T11:45:47.599Z,12.20
2022-08-20T11:48:14.409Z,11.95
2022-08-20T11:50:41.234Z,11.65
2022-08-20T11:53:08.288Z,10.88
2022-08-20T11:55:35.677Z,10.73
2022-08-20T11:58:02.995Z,9.90
2022-08-20T12:00:32.952Z,8.88
2022-08-20T12:03:05.731Z,9.43
2022-08-20T12:05:37.161Z,9.45
2022-08-20T12:08:04.211Z,8.93
2022-08-20T12:10:32.239Z,10.70
2022-08-20T12:12:59.273Z,9.27
2022-08-20T12:15:26.753Z,8.80
2022-08-20T12:17:54.863Z,8.60
2022-08-20T12:20:23.168Z,9.32
2022-08-20T12:22:50.428Z,9.40
2022-08-20T12:25:17.204Z,9.50
2022-08-20T12:27:43.915Z,9.05
2022-08-20T12:30:14.872Z,8.80
2022-08-20T12:32:41.976Z,9.88
2022-08-20T12:35:10.027Z,10.00
2022-08-20T12:37:36.779Z,10.73
2022-08-20T12:40:06.749Z,10.80
2022-08-20T12:42:33.646Z,10.25
2022-08-20T12:45:01.112Z,10.18
2022-08-20T12:47:31.226Z,10.35
2022-08-20T12:50:05.288Z,9.43
2022-08-20T12:52:32.649Z,9.20
2022-08-20T12:55:00.507Z,8.93
2022-08-20T12:57:29.153Z,8.90
2022-08-20T13:00:05.867Z,9.10
2022-08-20T13:02:32.639Z,9.10
2022-08-20T13:05:04.558Z,8.82
2022-08-20T13:07:33.382Z,8.30
2022-08-20T13:10:01.004Z,7.88
2022-08-20T13:12:28.491Z,8.20
2022-08-20T13:14:55.234Z,7.93
2022-08-20T13:17:38.004Z,8.27
2022-08-20T13:20:08.905Z,8.02
2022-08-20T13:22:35.806Z,8.32
2022-08-20T13:25:02.571Z,8.57
2022-08-20T13:27:29.669Z,9.18
2022-08-20T13:29:58.801Z,8.82
2022-08-20T13:32:26.347Z,9.20
2022-08-20T13:34:53.626Z,9.52
2022-08-20T13:37:25.655Z,9.35
2022-08-20T13:39:53.551Z,9.93
2022-08-20T13:42:20.835Z,10.65
2022-08-20T13:44:48.597Z,10.77
2022-08-20T13:47:19.722Z,11.75
2022-08-20T13:49:47.748Z,12.50
2022-08-20T13:52:16.919Z,12.63
2022-08-20T13:54:43.968Z,12.80
2022-08-20T13:57:17.860Z,12.70
2022-08-20T13:59:47.165Z,13.00
2022-08-20T14:02:14.482Z,14.95
2022-08-20T14:04:41.283Z,15.15
2022-08-20T14:07:18.662Z,15.45
2022-08-20T14:09:48.691Z,16.27
2022-08-20T14:12:15.934Z,20.15
2022-08-20T14:14:42.779Z,17.77
2022-08-20T14:17:24.593Z,17.48
2022-08-20T14:19:55.023Z,21.45
2022-08-20T14:22:25.231Z,20.85
2022-08-20T14:24:52.387Z,21.15
2022-08-20T14:27:21.613Z,20.23
2022-08-20T14:29:50.148Z,24.90
2022-08-20T14:32:17.667Z,21.77
2022-08-20T14:34:44.605Z,21.05
2022-08-20T14:37:21.449Z,21.45
2022-08-20T14:39:51.537Z,23.73
2022-08-20T14:42:18.751Z,22.70
2022-08-20T14:44:45.656Z,22.50
2022-08-20T14:47:12.449Z,20.67
2022-08-20T14:49:39.144Z,21.73
2022-08-20T14:52:06.649Z,21.73
2022-08-20T14:54:34.857Z,21.33
2022-08-20T14:57:02.266Z,22.55
2022-08-20T14:59:29.228Z,25.15
2022-08-20T15:01:56.010Z,20.42
2022-08-20T15:04:23.788Z,22.10
2022-08-20T15:06:54.628Z,21.83
2022-08-20T15:09:21.564Z,21.83
2022-08-20T15:11:48.678Z,22.90
2022-08-20T15:14:18.550Z,20.67
2022-08-20T15:16:46.281Z,23.73
2022-08-20T15:19:12.970Z,22.98
2022-08-20T15:21:45.249Z,22.15
2022-08-20T15:24:15.685Z,23.20
2022-08-20T15:26:46.398Z,20.92
2022-08-20T15:29:22.987Z,21.45
2022-08-20T15:31:50.859Z,20.90
2022-08-20T15:34:18.221Z,20.90
2022-08-20T15:36:45.704Z,22.88
2022-08-20T15:39:12.442Z,20.52
2022-08-20T15:41:39.147Z,21.35
2022-08-20T15:44:05.818Z,22.42
2022-08-20T15:46:36.064Z,22.55
2022-08-20T15:49:11.144Z,24.83
2022-08-20T15:51:45.859Z,23.42
2022-08-20T15:54:24.910Z,21.92
2022-08-20T15:56:57.703Z,23.90
2022-08-20T15:59:31.839Z,23.63
2022-08-20T16:02:10.146Z,23.65
2022-08-20T16:04:50.715Z,25.42
2022-08-20T16:11:16.617Z,22.83
2022-08-20T16:14:09.573Z,24.08
2022-08-20T16:16:42.445Z,25.73
2022-08-20T16:19:17.143Z,25.90
2022-08-20T16:21:46.143Z,25.20
2022-08-20T16:24:14.562Z,26.08
2022-08-20T16:26:47.251Z,26.60
2022-08-20T16:29:25.577Z,25.42
2022-08-20T16:32:28.695Z,26.42
2022-08-20T16:35:07.391Z,27.63
2022-08-20T16:38:20.797Z,26.73
2022-08-20T16:40:56.831Z,25.98
2022-08-20T16:43:39.673Z,25.63
2022-08-20T16:46:19.951Z,24.75
2022-08-20T16:48:54.106Z,24.58
2022-08-20T16:51:48.195Z,27.27
2022-08-20T16:54:20.928Z,29.25
2022-08-20T16:57:05.159Z,30.20
2022-08-20T17:02:18.539Z,30.42
2022-08-20T17:05:00.067Z,28.85
2022-08-20T17:07:46.489Z,28.33
2022-08-20T17:10:32.837Z,29.58
2022-08-20T17:13:17.694Z,27.63
2022-08-20T17:15:54.750Z,30.02
2022-08-20T17:18:36.419Z,31.85
2022-08-20T17:21:34.186Z,28.83
2022-08-20T17:24:16.638Z,29.70
2022-08-20T17:26:50.422Z,28.80
2022-08-20T17:29:26.511Z,29.25
2022-08-20T17:32:16.982Z,29.73
2022-08-20T17:34:52.858Z,28.92
2022-08-20T17:37:24.038Z,28.55
2022-08-20T17:40:33.236Z,28.88
2022-08-20T17:43:05.931Z,29.63
2022-08-20T17:45:45.752Z,29.70
2022-08-20T17:48:24.412Z,28.75
2022-08-20T17:50:54.087Z,29.02
2022-08-20T17:56:41.209Z,27.08
2022-08-20T17:59:36.394Z,31.23
2022-08-20T18:02:14.817Z,30.58
2022-08-20T18:04:44.551Z,25.80
2022-08-20T18:07:24.556Z,26.75
2022-08-20T18:10:13.977Z,26.10
2022-08-20T18:12:59.445Z,21.83
2022-08-20T18:15:39.263Z,19.20
2022-08-20T18:18:28.551Z,17.13
2022-08-20T18:21:32.498Z,16.75
2022-08-20T18:24:11.834Z,14.80
2022-08-20T18:26:49.460Z,13.13
2022-08-20T18:29:21.071Z,12.70
2022-08-20T18:31:55.326Z,11.95
2022-08-20T18:34:28.153Z,10.98
2022-08-20T18:37:08.233Z,12.07
2022-08-20T18:39:42.430Z,10.73
2022-08-20T18:42:25.430Z,11.85
2022-08-20T18:44:54.821Z,10.95
2022-08-20T18:47:33.611Z,11.25
2022-08-20T18:50:16.453Z,9.80
2022-08-20T18:52:51.219Z,11.18
2022-08-20T18:55:43.453Z,9.10
2022-08-20T18:58:14.357Z,8.93
2022-08-20T19:00:46.783Z,9.07
2022-08-20T19:03:19.162Z,8.55
2022-08-20T19:05:45.804Z,9.13
2022-08-20T19:08:16.921Z,8.23
2022-08-20T19:11:28.168Z,8.32
2022-08-20T19:14:41.362Z,8.98
2022-08-20T19:17:24.001Z,9.60
2022-08-20T19:20:20.525Z,10.13
2022-08-20T19:26:24.819Z,10.05
2022-08-20T19:28:58.968Z,10.45
2022-08-20T19:31:33.562Z,10.35
2022-08-20T19:34:23.144Z,9.98
2022-08-20T19:37:07.778Z,11.30
2022-08-20T19:39:37.479Z,10.90
2022-08-20T19:42:15.953Z,11.63
2022-08-20T19:45:02.420Z,10.95
2022-08-20T19:47:36.867Z,10.75
2022-08-20T19:50:12.679Z,10.23
2022-08-20T19:53:10.263Z,10.48
2022-08-20T19:55:39.407Z,10.50
2022-08-20T19:58:18.826Z,11.23
2022-08-20T20:00:55.851Z,10.40
2022-08-20T20:03:31.170Z,10.38
2022-08-20T20:06:19.710Z,10.98
2022-08-20T20:09:14.805Z,11.35
2022-08-20T20:11:46.936Z,10.93
2022-08-20T20:14:16.375Z,10.65
2022-08-20T20:16:48.625Z,10.57
2022-08-20T20:19:27.253Z,10.95
2022-08-20T20:22:19.508Z,10.07
2022-08-20T20:24:57.223Z,10.10
2022-08-20T20:27:26.566Z,9.90
2022-08-20T20:30:32.408Z,10.20
2022-08-20T20:33:11.796Z,11.15
2022-08-20T20:35:39.985Z,11.75
2022-08-20T20:38:13.230Z,9.88
2022-08-20T20:40:52.978Z,9.65
2022-08-20T20:43:42.083Z,11.32
2022-08-20T20:46:25.569Z,10.05
2022-08-20T20:49:17.100Z,9.73
2022-08-20T20:51:59.047Z,10.88
2022-08-20T20:54:30.086Z,10.13
2022-08-20T20:57:36.434Z,10.63
2022-08-20T21:00:15.933Z,10.45
2022-08-20T21:02:46.288Z,10.85
2022-08-20T21:05:19.981Z,12.00
2022-08-20T21:07:53.855Z,11.32
2022-08-20T21:10:24.689Z,13.15
2022-08-20T21:12:53.621Z,12.80
2022-08-20T21:15:23.672Z,12.68
2022-08-20T21:17:52.262Z,12.63
2022-08-20T21:20:21.605Z,13.15
2022-08-20T21:22:50.428Z,12.25
2022-08-20T21:25:21.954Z,13.05
2022-08-20T21:27:52.567Z,12.00
2022-08-20T21:30:22.548Z,11.82
2022-08-20T21:32:52.886Z,13.00
2022-08-20T21:35:21.756Z,11.88
2022-08-20T21:37:49.929Z,11.30
2022-08-20T21:40:21.674Z,11.90
2022-08-20T21:42:55.921Z,11.77
2022-08-20T21:45:23.343Z,11.50
2022-08-20T21:47:56.489Z,11.38
2022-08-20T21:50:25.232Z,11.07
2022-08-20T21:52:59.929Z,12.73
2022-08-20T21:55:32.181Z,12.77
2022-08-20T21:58:02.766Z,12.32
2022-08-20T22:00:47.606Z,11.88
2022-08-20T22:03:16.622Z,11.27
2022-08-20T22:05:49.268Z,9.52
2022-08-20T22:08:16.547Z,9.60
2022-08-20T22:10:44.802Z,9.18
2022-08-20T22:13:13.690Z,8.88
2022-08-20T22:15:40.683Z,8.48
2022-08-20T22:18:09.156Z,8.48
2022-08-20T22:20:37.516Z,7.93
2022-08-20T22:23:06.137Z,8.38
2022-08-20T22:25:34.481Z,8.27
2022-08-20T22:28:02.514Z,8.07
2022-08-20T22:30:30.489Z,8.27
2022-08-20T22:33:05.147Z,8.63
2022-08-20T22:35:34.776Z,7.73
2022-08-20T22:38:02.620Z,8.15
2022-08-20T22:40:30.711Z,7.68
2022-08-20T22:42:58.887Z,7.95
2022-08-20T22:45:27.305Z,7.82
2022-08-20T22:47:56.572Z,8.40
2022-08-20T22:50:28.211Z,7.75
2022-08-20T22:52:56.403Z,7.47
2022-08-20T22:55:27.794Z,7.82
2022-08-20T22:57:58.374Z,7.68
2022-08-20T23:00:26.885Z,7.97
2022-08-20T23:02:58.246Z,7.97
2022-08-20T23:05:29.272Z,8.13
2022-08-20T23:07:58.597Z,7.85
2022-08-20T23:10:28.615Z,8.00
2022-08-20T23:12:56.896Z,7.85
2022-08-20T23:15:36.358Z,8.40
2022-08-20T23:18:15.779Z,8.23
2022-08-20T23:20:49.959Z,8.57
2022-08-20T23:23:18.329Z,8.43
2022-08-20T23:25:47.085Z,8.32
2022-08-20T23:28:18.576Z,8.73
2022-08-20T23:30:48.027Z,9.02
2022-08-20T23:33:16.626Z,8.55
2022-08-20T23:35:45.534Z,8.60
2022-08-20T23:38:14.073Z,8.52
2022-08-20T23:40:42.526Z,8.05
2022-08-20T23:43:10.748Z,7.75
2022-08-20T23:45:40.110Z,7.75
2022-08-20T23:48:09.286Z,8.13
2022-08-20T23:50:37.694Z,7.28
2022-08-20T23:53:06.026Z,7.55
2022-08-20T23:55:34.128Z,7.13
2022-08-20T23:58:04.438Z,7.63
